sensor_id;sensor_type;location;lat;lon;timestamp;pressure;altitude;pressure_sealevel;temperature;humidity
8294;BME280;4185;41.506;24.938;2023-05-10T00:01:02;93853.66;;;8.94;90.40
8294;BME280;4185;41.506;24.938;2023-05-10T00:03:29;93855.13;;;8.95;88.84
8294;BME280;4185;41.506;24.938;2023-05-10T00:05:56;93854.19;;;8.98;90.10
8294;BME280;4185;41.506;24.938;2023-05-10T00:08:23;93849.34;;;9.02;89.95
8294;BME280;4185;41.506;24.938;2023-05-10T00:10:50;93849.06;;;9.00;89.61
8294;BME280;4185;41.506;24.938;2023-05-10T00:13:17;93849.53;;;8.99;90.61
8294;BME280;4185;41.506;24.938;2023-05-10T00:15:44;93841.97;;;9.03;91.24
8294;BME280;4185;41.506;24.938;2023-05-10T00:18:12;93837.28;;;9.03;91.33
8294;BME280;4185;41.506;24.938;2023-05-10T00:20:39;93843.66;;;9.00;88.64
8294;BME280;4185;41.506;24.938;2023-05-10T00:23:05;93834.59;;;9.03;90.88
8294;BME280;4185;41.506;24.938;2023-05-10T00:25:32;93833.66;;;9.06;89.93
8294;BME280;4185;41.506;24.938;2023-05-10T00:27:59;93830.31;;;9.11;89.23
8294;BME280;4185;41.506;24.938;2023-05-10T00:30:27;93832.25;;;9.11;91.09
8294;BME280;4185;41.506;24.938;2023-05-10T00:32:54;93831.31;;;9.14;91.69
8294;BME280;4185;41.506;24.938;2023-05-10T00:35:22;93830.84;;;9.15;88.12
8294;BME280;4185;41.506;24.938;2023-05-10T00:37:49;93835.25;;;9.13;89.35
8294;BME280;4185;41.506;24.938;2023-05-10T00:40:15;93828.59;;;9.14;90.36
8294;BME280;4185;41.506;24.938;2023-05-10T00:42:42;93835.72;;;9.11;91.50
8294;BME280;4185;41.506;24.938;2023-05-10T00:45:09;93835.16;;;9.07;91.03
8294;BME280;4185;41.506;24.938;2023-05-10T00:47:37;93832.16;;;9.05;91.58
8294;BME280;4185;41.506;24.938;2023-05-10T00:50:05;93835.16;;;9.07;91.44
8294;BME280;4185;41.506;24.938;2023-05-10T00:52:33;93832.44;;;9.07;91.08
8294;BME280;4185;41.506;24.938;2023-05-10T00:55:00;93826.19;;;9.01;90.92
8294;BME280;4185;41.506;24.938;2023-05-10T00:57:28;93830.00;;;8.95;91.12
8294;BME280;4185;41.506;24.938;2023-05-10T00:59:55;93830.56;;;8.99;90.80
8294;BME280;4185;41.506;24.938;2023-05-10T01:02:23;93819.25;;;9.00;91.26
8294;BME280;4185;41.506;24.938;2023-05-10T01:04:50;93819.09;;;9.04;91.96
8294;BME280;4185;41.506;24.938;2023-05-10T01:07:18;93826.00;;;9.05;92.66
8294;BME280;4185;41.506;24.938;2023-05-10T01:09:46;93822.84;;;9.06;92.53
8294;BME280;4185;41.506;24.938;2023-05-10T01:12:13;93819.09;;;9.04;91.14
8294;BME280;4185;41.506;24.938;2023-05-10T01:14:40;93819.75;;;8.99;91.11
8294;BME280;4185;41.506;24.938;2023-05-10T01:17:08;93820.88;;;8.92;93.31
8294;BME280;4185;41.506;24.938;2023-05-10T01:19:36;93813.75;;;8.95;93.76
8294;BME280;4185;41.506;24.938;2023-05-10T01:22:11;93810.31;;;8.94;93.75
8294;BME280;4185;41.506;24.938;2023-05-10T01:25:06;93813.31;;;8.96;94.70
8294;BME280;4185;41.506;24.938;2023-05-10T01:27:55;93828.34;;;8.97;92.88
8294;BME280;4185;41.506;24.938;2023-05-10T01:31:07;93821.16;;;8.94;93.88
8294;BME280;4185;41.506;24.938;2023-05-10T01:33:39;93815.72;;;8.94;93.12
8294;BME280;4185;41.506;24.938;2023-05-10T01:36:16;93819.09;;;8.89;93.16
8294;BME280;4185;41.506;24.938;2023-05-10T01:38:57;93822.81;;;8.77;94.13
8294;BME280;4185;41.506;24.938;2023-05-10T01:41:36;93813.38;;;8.73;95.15
8294;BME280;4185;41.506;24.938;2023-05-10T01:44:14;93813.81;;;8.71;95.93
8294;BME280;4185;41.506;24.938;2023-05-10T01:46:44;93817.88;;;8.76;96.13
8294;BME280;4185;41.506;24.938;2023-05-10T01:49:21;93813.00;;;8.80;95.68
8294;BME280;4185;41.506;24.938;2023-05-10T01:51:52;93814.63;;;8.86;95.75
8294;BME280;4185;41.506;24.938;2023-05-10T01:54:21;93811.97;;;8.92;95.08
8294;BME280;4185;41.506;24.938;2023-05-10T01:56:55;93812.91;;;8.89;95.42
8294;BME280;4185;41.506;24.938;2023-05-10T01:59:25;93808.44;;;8.86;94.49
8294;BME280;4185;41.506;24.938;2023-05-10T02:01:55;93809.81;;;8.81;94.81
8294;BME280;4185;41.506;24.938;2023-05-10T02:04:25;93815.72;;;8.80;93.47
8294;BME280;4185;41.506;24.938;2023-05-10T02:06:53;93813.47;;;8.78;93.14
8294;BME280;4185;41.506;24.938;2023-05-10T02:09:23;93813.47;;;8.78;94.51
8294;BME280;4185;41.506;24.938;2023-05-10T02:11:51;93823.56;;;8.78;94.00
8294;BME280;4185;41.506;24.938;2023-05-10T02:14:19;93808.63;;;8.82;93.58
8294;BME280;4185;41.506;24.938;2023-05-10T02:16:47;93808.22;;;8.75;93.52
8294;BME280;4185;41.506;24.938;2023-05-10T02:19:15;93809.16;;;8.72;93.34
8294;BME280;4185;41.506;24.938;2023-05-10T02:21:44;93809.63;;;8.70;94.43
8294;BME280;4185;41.506;24.938;2023-05-10T02:24:12;93809.94;;;8.72;95.71
8294;BME280;4185;41.506;24.938;2023-05-10T02:26:40;93814.88;;;8.74;96.21
8294;BME280;4185;41.506;24.938;2023-05-10T02:29:08;93815.63;;;8.74;96.26
8294;BME280;4185;41.506;24.938;2023-05-10T02:31:38;93809.75;;;8.76;96.19
8294;BME280;4185;41.506;24.938;2023-05-10T02:34:05;93812.63;;;8.72;95.88
8294;BME280;4185;41.506;24.938;2023-05-10T02:36:34;93812.63;;;8.72;95.73
8294;BME280;4185;41.506;24.938;2023-05-10T02:39:03;93813.38;;;8.73;94.68
8294;BME280;4185;41.506;24.938;2023-05-10T02:41:35;93812.16;;;8.74;94.73
8294;BME280;4185;41.506;24.938;2023-05-10T02:44:06;93808.97;;;8.75;93.71
8294;BME280;4185;41.506;24.938;2023-05-10T02:46:34;93812.91;;;8.74;94.49
8294;BME280;4185;41.506;24.938;2023-05-10T02:49:02;93810.84;;;8.69;95.00
8294;BME280;4185;41.506;24.938;2023-05-10T02:51:31;93818.13;;;8.63;94.91
8294;BME280;4185;41.506;24.938;2023-05-10T02:54:06;93808.81;;;8.64;94.71
8294;BME280;4185;41.506;24.938;2023-05-10T02:56:40;93814.75;;;8.68;94.58
8294;BME280;4185;41.506;24.938;2023-05-10T02:59:08;93809.63;;;8.70;93.96
8294;BME280;4185;41.506;24.938;2023-05-10T03:01:37;93802.44;;;8.67;92.59
8294;BME280;4185;41.506;24.938;2023-05-10T03:04:04;93807.28;;;8.63;93.80
8294;BME280;4185;41.506;24.938;2023-05-10T03:06:31;93804.47;;;8.57;95.70
8294;BME280;4185;41.506;24.938;2023-05-10T03:08:58;93804.09;;;8.50;94.67
8294;BME280;4185;41.506;24.938;2023-05-10T03:11:40;93805.94;;;8.44;94.96
8294;BME280;4185;41.506;24.938;2023-05-10T03:14:20;93804.75;;;8.45;95.42
8294;BME280;4185;41.506;24.938;2023-05-10T03:16:54;93796.97;;;8.38;96.07
8294;BME280;4185;41.506;24.938;2023-05-10T03:19:26;93807.75;;;8.47;95.69
8294;BME280;4185;41.506;24.938;2023-05-10T03:21:54;93805.03;;;8.47;95.90
8294;BME280;4185;41.506;24.938;2023-05-10T03:24:27;93798.69;;;8.50;96.00
8294;BME280;4185;41.506;24.938;2023-05-10T03:26:59;93804.69;;;8.54;96.06
8294;BME280;4185;41.506;24.938;2023-05-10T03:29:28;93805.59;;;8.51;95.55
8294;BME280;4185;41.506;24.938;2023-05-10T03:31:57;93806.34;;;8.51;95.46
8294;BME280;4185;41.506;24.938;2023-05-10T03:34:24;93812.97;;;8.50;96.40
8294;BME280;4185;41.506;24.938;2023-05-10T03:36:52;93809.88;;;8.43;97.26
8294;BME280;4185;41.506;24.938;2023-05-10T03:39:18;93810.34;;;8.41;97.85
8294;BME280;4185;41.506;24.938;2023-05-10T03:41:46;93806.69;;;8.44;97.77
8294;BME280;4185;41.506;24.938;2023-05-10T03:44:14;93810.44;;;8.47;98.03
8294;BME280;4185;41.506;24.938;2023-05-10T03:46:41;93812.50;;;8.52;98.12
8294;BME280;4185;41.506;24.938;2023-05-10T03:49:08;93810.09;;;8.54;96.83
8294;BME280;4185;41.506;24.938;2023-05-10T03:51:35;93810.47;;;8.61;95.91
8294;BME280;4185;41.506;24.938;2023-05-10T03:54:01;93811.50;;;8.64;95.44
8294;BME280;4185;41.506;24.938;2023-05-10T03:56:28;93810.66;;;8.58;96.00
8294;BME280;4185;41.506;24.938;2023-05-10T03:58:55;93816.53;;;8.56;96.79
8294;BME280;4185;41.506;24.938;2023-05-10T04:01:23;93824.81;;;8.53;97.72
8294;BME280;4185;41.506;24.938;2023-05-10T04:03:50;93822.94;;;8.44;98.27
8294;BME280;4185;41.506;24.938;2023-05-10T04:06:17;93826.69;;;8.47;98.72
8294;BME280;4185;41.506;24.938;2023-05-10T04:08:43;93838.06;;;8.51;98.69
8294;BME280;4185;41.506;24.938;2023-05-10T04:11:11;93840.44;;;8.58;98.33
8294;BME280;4185;41.506;24.938;2023-05-10T04:13:39;93829.72;;;8.63;98.36
8294;BME280;4185;41.506;24.938;2023-05-10T04:16:06;93843.06;;;8.67;97.66
8294;BME280;4185;41.506;24.938;2023-05-10T04:18:34;93841.84;;;8.68;97.41
8294;BME280;4185;41.506;24.938;2023-05-10T04:21:01;93844.09;;;8.70;97.23
8294;BME280;4185;41.506;24.938;2023-05-10T04:23:28;93837.00;;;8.72;94.96
8294;BME280;4185;41.506;24.938;2023-05-10T04:25:59;93834.00;;;8.70;94.21
8294;BME280;4185;41.506;24.938;2023-05-10T04:28:26;93836.72;;;8.70;94.36
8294;BME280;4185;41.506;24.938;2023-05-10T04:30:53;93837.94;;;8.69;93.34
8294;BME280;4185;41.506;24.938;2023-05-10T04:33:19;93836.59;;;8.64;95.09
8294;BME280;4185;41.506;24.938;2023-05-10T04:35:48;93838.00;;;8.60;96.10
8294;BME280;4185;41.506;24.938;2023-05-10T04:38:15;93834.00;;;8.55;96.15
8294;BME280;4185;41.506;24.938;2023-05-10T04:40:41;93836.53;;;8.59;96.99
8294;BME280;4185;41.506;24.938;2023-05-10T04:43:08;93838.75;;;8.60;96.80
8294;BME280;4185;41.506;24.938;2023-05-10T04:45:35;93836.22;;;8.57;97.04
8294;BME280;4185;41.506;24.938;2023-05-10T04:48:02;93842.84;;;8.56;95.50
8294;BME280;4185;41.506;24.938;2023-05-10T04:50:29;93832.47;;;8.54;95.48
8294;BME280;4185;41.506;24.938;2023-05-10T04:52:57;93842.97;;;8.61;96.01
8294;BME280;4185;41.506;24.938;2023-05-10T04:55:24;93842.78;;;8.65;95.64
8294;BME280;4185;41.506;24.938;2023-05-10T04:57:51;93840.91;;;8.71;95.21
8294;BME280;4185;41.506;24.938;2023-05-10T05:00:19;93845.69;;;8.76;94.44
8294;BME280;4185;41.506;24.938;2023-05-10T05:02:46;93851.38;;;8.78;94.54
8294;BME280;4185;41.506;24.938;2023-05-10T05:05:13;93855.13;;;8.81;95.90
8294;BME280;4185;41.506;24.938;2023-05-10T05:07:39;93854.03;;;8.87;95.83
8294;BME280;4185;41.506;24.938;2023-05-10T05:10:08;93853.09;;;8.90;96.08
8294;BME280;4185;41.506;24.938;2023-05-10T05:12:35;93858.22;;;8.88;95.40
8294;BME280;4185;41.506;24.938;2023-05-10T05:15:02;93863.16;;;8.90;95.59
8294;BME280;4185;41.506;24.938;2023-05-10T05:17:30;93860.75;;;8.92;95.65
8294;BME280;4185;41.506;24.938;2023-05-10T05:19:56;93860.56;;;8.95;94.53
8294;BME280;4185;41.506;24.938;2023-05-10T05:22:23;93862.63;;;9.00;94.40
8294;BME280;4185;41.506;24.938;2023-05-10T05:24:52;93859.25;;;9.05;93.75
8294;BME280;4185;41.506;24.938;2023-05-10T05:27:20;93856.84;;;9.07;93.13
8294;BME280;4185;41.506;24.938;2023-05-10T05:29:49;93857.13;;;9.09;90.36
8294;BME280;4185;41.506;24.938;2023-05-10T05:32:16;93859.34;;;9.11;87.35
8294;BME280;4185;41.506;24.938;2023-05-10T05:34:44;93853.09;;;9.05;85.36
8294;BME280;4185;41.506;24.938;2023-05-10T05:37:13;93858.06;;;9.06;87.92
8294;BME280;4185;41.506;24.938;2023-05-10T05:39:39;93856.47;;;9.00;87.02
8294;BME280;4185;41.506;24.938;2023-05-10T05:42:06;93849.91;;;8.92;86.62
8294;BME280;4185;41.506;24.938;2023-05-10T05:44:34;93846.53;;;8.82;87.94
8294;BME280;4185;41.506;24.938;2023-05-10T05:47:01;93847.66;;;8.90;87.69
8294;BME280;4185;41.506;24.938;2023-05-10T05:49:28;93857.47;;;8.88;88.05
8294;BME280;4185;41.506;24.938;2023-05-10T05:51:58;93854.19;;;8.84;86.14
8294;BME280;4185;41.506;24.938;2023-05-10T05:54:26;93851.97;;;8.82;87.46
8294;BME280;4185;41.506;24.938;2023-05-10T05:56:54;93857.66;;;8.84;86.28
8294;BME280;4185;41.506;24.938;2023-05-10T05:59:20;93857.75;;;8.90;86.72
8294;BME280;4185;41.506;24.938;2023-05-10T06:01:49;93855.13;;;8.95;86.59
8294;BME280;4185;41.506;24.938;2023-05-10T06:04:16;93863.56;;;8.97;87.12
8294;BME280;4185;41.506;24.938;2023-05-10T06:06:43;93862.44;;;9.04;86.45
8294;BME280;4185;41.506;24.938;2023-05-10T06:09:10;93867.09;;;9.03;85.25
8294;BME280;4185;41.506;24.938;2023-05-10T06:11:37;93868.59;;;9.04;85.15
8294;BME280;4185;41.506;24.938;2023-05-10T06:14:04;93868.59;;;9.04;84.31
8294;BME280;4185;41.506;24.938;2023-05-10T06:16:33;93863.94;;;9.05;84.23
8294;BME280;4185;41.506;24.938;2023-05-10T06:19:02;93863.72;;;9.08;83.44
8294;BME280;4185;41.506;24.938;2023-05-10T06:21:28;93868.44;;;9.08;82.34
8294;BME280;4185;41.506;24.938;2023-05-10T06:23:55;93876.19;;;9.15;81.86
8294;BME280;4185;41.506;24.938;2023-05-10T06:26:22;93877.22;;;9.17;79.95
8294;BME280;4185;41.506;24.938;2023-05-10T06:28:49;93876.56;;;9.22;81.83
8294;BME280;4185;41.506;24.938;2023-05-10T06:31:16;93876.84;;;9.24;81.81
8294;BME280;4185;41.506;24.938;2023-05-10T06:33:43;93879.38;;;9.28;81.56
8294;BME280;4185;41.506;24.938;2023-05-10T06:36:11;93879.47;;;9.33;79.85
8294;BME280;4185;41.506;24.938;2023-05-10T06:38:38;93887.84;;;9.35;79.50
8294;BME280;4185;41.506;24.938;2023-05-10T06:41:05;93866.34;;;9.46;81.34
8294;BME280;4185;41.506;24.938;2023-05-10T06:43:32;93871.41;;;9.53;79.74
8294;BME280;4185;41.506;24.938;2023-05-10T06:45:59;93873.66;;;9.55;78.97
8294;BME280;4185;41.506;24.938;2023-05-10T06:48:26;93882.88;;;9.63;79.02
8294;BME280;4185;41.506;24.938;2023-05-10T06:50:53;93878.66;;;9.76;79.12
8294;BME280;4185;41.506;24.938;2023-05-10T06:53:21;93884.25;;;9.88;79.29
8294;BME280;4185;41.506;24.938;2023-05-10T06:55:49;93883.69;;;9.83;76.37
8294;BME280;4185;41.506;24.938;2023-05-10T06:58:16;93869.19;;;9.86;77.98
8294;BME280;4185;41.506;24.938;2023-05-10T07:00:43;93874.06;;;9.82;78.76
8294;BME280;4185;41.506;24.938;2023-05-10T07:03:12;93875.84;;;9.85;79.75
8294;BME280;4185;41.506;24.938;2023-05-10T07:05:38;93880.31;;;9.88;79.65
8294;BME280;4185;41.506;24.938;2023-05-10T07:08:05;93874.63;;;9.86;79.93
8294;BME280;4185;41.506;24.938;2023-05-10T07:10:34;93875.16;;;9.91;80.69
8294;BME280;4185;41.506;24.938;2023-05-10T07:13:01;93874.78;;;9.98;79.47
8294;BME280;4185;41.506;24.938;2023-05-10T07:15:27;93882.25;;;10.03;79.40
8294;BME280;4185;41.506;24.938;2023-05-10T07:17:55;93874.19;;;10.08;79.54
8294;BME280;4185;41.506;24.938;2023-05-10T07:20:21;93879.72;;;10.14;78.23
8294;BME280;4185;41.506;24.938;2023-05-10T07:22:48;93886.31;;;10.27;78.03
8294;BME280;4185;41.506;24.938;2023-05-10T07:25:15;93891.91;;;10.38;76.60
8294;BME280;4185;41.506;24.938;2023-05-10T07:27:43;93879.06;;;10.39;75.05
8294;BME280;4185;41.506;24.938;2023-05-10T07:30:11;93896.84;;;10.40;74.58
8294;BME280;4185;41.506;24.938;2023-05-10T07:32:38;93895.53;;;10.35;72.96
8294;BME280;4185;41.506;24.938;2023-05-10T07:35:08;93904.16;;;10.34;73.26
8294;BME280;4185;41.506;24.938;2023-05-10T07:37:34;93905.47;;;10.38;73.93
8294;BME280;4185;41.506;24.938;2023-05-10T07:40:01;93897.81;;;10.57;74.30
8294;BME280;4185;41.506;24.938;2023-05-10T07:42:29;93897.72;;;10.71;72.21
8294;BME280;4185;41.506;24.938;2023-05-10T07:44:57;93896.09;;;10.79;72.32
8294;BME280;4185;41.506;24.938;2023-05-10T07:47:24;93896.16;;;10.85;70.66
8294;BME280;4185;41.506;24.938;2023-05-10T07:49:51;93896.16;;;10.85;68.89
8294;BME280;4185;41.506;24.938;2023-05-10T07:52:18;93896.09;;;10.79;68.35
8294;BME280;4185;41.506;24.938;2023-05-10T07:54:44;93901.59;;;10.85;67.62
8294;BME280;4185;41.506;24.938;2023-05-10T07:57:11;93894.59;;;10.78;68.01
8294;BME280;4185;41.506;24.938;2023-05-10T07:59:39;93902.00;;;10.78;69.08
8294;BME280;4185;41.506;24.938;2023-05-10T08:02:08;93901.00;;;10.75;70.76
8294;BME280;4185;41.506;24.938;2023-05-10T08:04:35;93905.00;;;10.80;70.43
8294;BME280;4185;41.506;24.938;2023-05-10T08:07:02;93898.88;;;10.85;69.70
8294;BME280;4185;41.506;24.938;2023-05-10T08:09:28;93907.03;;;10.85;69.92
8294;BME280;4185;41.506;24.938;2023-05-10T08:11:55;93900.91;;;10.90;70.53
8294;BME280;4185;41.506;24.938;2023-05-10T08:14:24;93905.38;;;10.93;70.27
8294;BME280;4185;41.506;24.938;2023-05-10T08:16:51;93902.94;;;10.95;68.51
8294;BME280;4185;41.506;24.938;2023-05-10T08:19:19;93903.22;;;10.97;68.77
8294;BME280;4185;41.506;24.938;2023-05-10T08:21:47;93903.28;;;11.02;69.45
8294;BME280;4185;41.506;24.938;2023-05-10T08:24:14;93907.34;;;11.13;68.26
8294;BME280;4185;41.506;24.938;2023-05-10T08:26:41;93913.84;;;11.21;69.73
8294;BME280;4185;41.506;24.938;2023-05-10T08:29:07;93905.78;;;11.32;69.06
8294;BME280;4185;41.506;24.938;2023-05-10T08:31:34;93906.28;;;11.30;66.66
8294;BME280;4185;41.506;24.938;2023-05-10T08:34:01;93915.66;;;11.29;67.62
8294;BME280;4185;41.506;24.938;2023-05-10T08:36:29;93918.53;;;11.20;66.50
8294;BME280;4185;41.506;24.938;2023-05-10T08:38:57;93916.97;;;11.14;66.81
8294;BME280;4185;41.506;24.938;2023-05-10T08:41:25;93911.06;;;11.15;68.55
8294;BME280;4185;41.506;24.938;2023-05-10T08:43:52;93916.50;;;11.15;68.68
8294;BME280;4185;41.506;24.938;2023-05-10T08:46:21;93919.06;;;11.24;67.99
8294;BME280;4185;41.506;24.938;2023-05-10T08:48:50;93913.41;;;11.02;66.67
8294;BME280;4185;41.506;24.938;2023-05-10T08:51:19;93916.81;;;10.97;67.25
8294;BME280;4185;41.506;24.938;2023-05-10T08:53:48;93911.38;;;10.97;67.43
8294;BME280;4185;41.506;24.938;2023-05-10T08:56:15;93914.75;;;11.12;67.45
8294;BME280;4185;41.506;24.938;2023-05-10T08:58:43;93911.72;;;11.30;67.95
8294;BME280;4185;41.506;24.938;2023-05-10T09:01:11;93919.03;;;11.44;67.75
8294;BME280;4185;41.506;24.938;2023-05-10T09:03:39;93903.47;;;11.50;64.71
8294;BME280;4185;41.506;24.938;2023-05-10T09:06:06;93907.13;;;11.67;64.97
8294;BME280;4185;41.506;24.938;2023-05-10T09:08:34;93904.06;;;11.85;64.68
8294;BME280;4185;41.506;24.938;2023-05-10T09:11:03;93894.72;;;11.97;64.30
8294;BME280;4185;41.506;24.938;2023-05-10T09:13:31;93900.81;;;12.12;64.07
8294;BME280;4185;41.506;24.938;2023-05-10T09:15:59;93902.34;;;12.24;64.46
8294;BME280;4185;41.506;24.938;2023-05-10T09:18:27;93893.78;;;12.43;64.48
8294;BME280;4185;41.506;24.938;2023-05-10T09:20:54;93906.97;;;12.50;61.87
8294;BME280;4185;41.506;24.938;2023-05-10T09:23:21;93901.75;;;12.52;63.84
8294;BME280;4185;41.506;24.938;2023-05-10T09:26:01;93904.81;;;12.65;63.48
8294;BME280;4185;41.506;24.938;2023-05-10T09:28:32;93893.94;;;12.76;62.68
8294;BME280;4185;41.506;24.938;2023-05-10T09:30:59;93894.69;;;12.76;62.10
8294;BME280;4185;41.506;24.938;2023-05-10T09:33:26;93890.00;;;12.77;61.79
8294;BME280;4185;41.506;24.938;2023-05-10T09:35:53;93882.06;;;12.73;61.49
8294;BME280;4185;41.506;24.938;2023-05-10T09:38:20;93884.06;;;12.84;61.05
8294;BME280;4185;41.506;24.938;2023-05-10T09:40:51;93876.59;;;12.79;60.68
8294;BME280;4185;41.506;24.938;2023-05-10T09:43:20;93885.31;;;12.88;60.62
8294;BME280;4185;41.506;24.938;2023-05-10T09:45:49;93873.69;;;12.99;60.51
8294;BME280;4185;41.506;24.938;2023-05-10T09:48:16;93865.06;;;13.06;58.61
8294;BME280;4185;41.506;24.938;2023-05-10T09:50:43;93874.22;;;13.03;58.62
8294;BME280;4185;41.506;24.938;2023-05-10T09:53:14;93876.47;;;13.04;56.50
8294;BME280;4185;41.506;24.938;2023-05-10T09:55:43;93880.47;;;13.09;56.88
8294;BME280;4185;41.506;24.938;2023-05-10T09:58:12;93871.31;;;13.17;57.46
8294;BME280;4185;41.506;24.938;2023-05-10T10:00:40;93870.09;;;13.35;55.81
8294;BME280;4185;41.506;24.938;2023-05-10T10:03:13;93874.06;;;13.39;56.55
8294;BME280;4185;41.506;24.938;2023-05-10T10:05:41;93866.13;;;13.47;56.67
8294;BME280;4185;41.506;24.938;2023-05-10T10:08:09;93860.66;;;13.30;53.37
8294;BME280;4185;41.506;24.938;2023-05-10T10:10:36;93865.38;;;13.30;54.46
8294;BME280;4185;41.506;24.938;2023-05-10T10:13:04;93864.63;;;13.35;55.09
8294;BME280;4185;41.506;24.938;2023-05-10T10:15:32;93850.22;;;13.23;54.55
8294;BME280;4185;41.506;24.938;2023-05-10T10:18:00;93856.44;;;13.24;53.61
8294;BME280;4185;41.506;24.938;2023-05-10T10:20:30;93848.03;;;13.44;54.34
8294;BME280;4185;41.506;24.938;2023-05-10T10:22:57;93856.47;;;13.46;55.64
8294;BME280;4185;41.506;24.938;2023-05-10T10:25:24;93853.22;;;13.53;53.87
8294;BME280;4185;41.506;24.938;2023-05-10T10:28:02;93841.09;;;13.54;54.18
8294;BME280;4185;41.506;24.938;2023-05-10T10:30:38;93848.53;;;13.59;54.25
8294;BME280;4185;41.506;24.938;2023-05-10T10:33:18;93844.06;;;13.56;55.06
8294;BME280;4185;41.506;24.938;2023-05-10T10:35:50;93841.56;;;13.58;55.40
8294;BME280;4185;41.506;24.938;2023-05-10T10:38:18;93851.50;;;13.72;56.24
8294;BME280;4185;41.506;24.938;2023-05-10T10:40:45;93864.66;;;13.85;55.10
8294;BME280;4185;41.506;24.938;2023-05-10T10:43:23;93853.97;;;13.92;52.74
8294;BME280;4185;41.506;24.938;2023-05-10T10:46:11;93858.19;;;13.93;54.19
8294;BME280;4185;41.506;24.938;2023-05-10T10:48:39;93851.50;;;14.05;53.63
8294;BME280;4185;41.506;24.938;2023-05-10T10:51:08;93856.44;;;14.01;54.10
8294;BME280;4185;41.506;24.938;2023-05-10T10:53:37;93849.50;;;13.89;52.57
8294;BME280;4185;41.506;24.938;2023-05-10T10:56:06;93860.19;;;13.93;52.40
8294;BME280;4185;41.506;24.938;2023-05-10T10:58:35;93850.97;;;14.29;52.99
8294;BME280;4185;41.506;24.938;2023-05-10T11:01:11;93850.94;;;14.23;52.52
8294;BME280;4185;41.506;24.938;2023-05-10T11:03:38;93851.69;;;14.35;52.29
8294;BME280;4185;41.506;24.938;2023-05-10T11:06:06;93854.94;;;14.33;51.63
8294;BME280;4185;41.506;24.938;2023-05-10T11:08:40;93844.44;;;14.48;51.29
8294;BME280;4185;41.506;24.938;2023-05-10T11:11:08;93848.91;;;14.51;51.94
8294;BME280;4185;41.506;24.938;2023-05-10T11:13:38;93843.94;;;14.44;51.74
8294;BME280;4185;41.506;24.938;2023-05-10T11:16:16;93846.66;;;14.55;52.89
8294;BME280;4185;41.506;24.938;2023-05-10T11:18:58;93845.06;;;14.82;51.07
8294;BME280;4185;41.506;24.938;2023-05-10T11:21:28;93835.16;;;14.74;49.43
8294;BME280;4185;41.506;24.938;2023-05-10T11:23:56;93831.72;;;14.62;49.69
8294;BME280;4185;41.506;24.938;2023-05-10T11:26:24;93835.97;;;14.57;52.32
8294;BME280;4185;41.506;24.938;2023-05-10T11:28:52;93834.47;;;14.56;53.33
8294;BME280;4185;41.506;24.938;2023-05-10T11:31:21;93832.25;;;14.49;53.17
8294;BME280;4185;41.506;24.938;2023-05-10T11:33:51;93836.41;;;14.73;51.72
8294;BME280;4185;41.506;24.938;2023-05-10T11:36:20;93831.78;;;15.03;49.67
8294;BME280;4185;41.506;24.938;2023-05-10T11:38:48;93831.16;;;15.21;50.71
8294;BME280;4185;41.506;24.938;2023-05-10T11:41:16;93823.16;;;15.28;50.30
8294;BME280;4185;41.506;24.938;2023-05-10T11:43:46;93823.34;;;15.41;49.62
8294;BME280;4185;41.506;24.938;2023-05-10T11:46:14;93810.47;;;15.66;49.77
8294;BME280;4185;41.506;24.938;2023-05-10T11:48:42;93811.47;;;15.63;50.25
8294;BME280;4185;41.506;24.938;2023-05-10T11:51:10;93813.78;;;15.83;50.84
8294;BME280;4185;41.506;24.938;2023-05-10T11:53:37;93823.38;;;15.71;49.99
8294;BME280;4185;41.506;24.938;2023-05-10T11:56:07;93800.53;;;15.63;49.46
8294;BME280;4185;41.506;24.938;2023-05-10T11:58:34;93813.78;;;15.83;49.18
8294;BME280;4185;41.506;24.938;2023-05-10T12:01:01;93815.16;;;15.71;49.23
8294;BME280;4185;41.506;24.938;2023-05-10T12:03:29;93810.84;;;15.81;50.58
8294;BME280;4185;41.506;24.938;2023-05-10T12:05:57;93824.75;;;15.83;49.31
8294;BME280;4185;41.506;24.938;2023-05-10T12:08:25;93826.22;;;15.90;49.54
8294;BME280;4185;41.506;24.938;2023-05-10T12:10:53;93810.56;;;16.09;49.19
8294;BME280;4185;41.506;24.938;2023-05-10T12:13:22;93816.91;;;16.22;49.08
8294;BME280;4185;41.506;24.938;2023-05-10T12:15:49;93815.97;;;16.44;49.71
8294;BME280;4185;41.506;24.938;2023-05-10T12:18:22;93814.88;;;16.52;48.09
8294;BME280;4185;41.506;24.938;2023-05-10T12:20:51;93817.47;;;16.39;48.20
8294;BME280;4185;41.506;24.938;2023-05-10T12:23:19;93811.72;;;16.43;47.99
8294;BME280;4185;41.506;24.938;2023-05-10T12:25:47;93807.69;;;16.49;47.72
8294;BME280;4185;41.506;24.938;2023-05-10T12:28:13;93812.38;;;16.30;48.57
8294;BME280;4185;41.506;24.938;2023-05-10T12:30:42;93807.56;;;16.36;48.90
8294;BME280;4185;41.506;24.938;2023-05-10T12:33:10;93793.97;;;16.25;49.62
8294;BME280;4185;41.506;24.938;2023-05-10T12:35:45;93799.03;;;16.40;49.67
8294;BME280;4185;41.506;24.938;2023-05-10T12:38:25;93797.06;;;16.16;50.02
8294;BME280;4185;41.506;24.938;2023-05-10T12:40:54;93796.03;;;16.19;50.51
8294;BME280;4185;41.506;24.938;2023-05-10T12:43:21;93789.22;;;16.26;49.95
8294;BME280;4185;41.506;24.938;2023-05-10T12:45:49;93800.94;;;16.02;49.73
8294;BME280;4185;41.506;24.938;2023-05-10T12:48:16;93789.16;;;16.07;49.92
8294;BME280;4185;41.506;24.938;2023-05-10T12:50:43;93788.94;;;16.29;50.25
8294;BME280;4185;41.506;24.938;2023-05-10T12:53:10;93783.16;;;16.33;48.97
8294;BME280;4185;41.506;24.938;2023-05-10T12:55:36;93787.06;;;16.19;49.47
8294;BME280;4185;41.506;24.938;2023-05-10T12:58:03;93778.97;;;16.08;51.00
8294;BME280;4185;41.506;24.938;2023-05-10T13:00:30;93790.97;;;15.75;49.71
8294;BME280;4185;41.506;24.938;2023-05-10T13:02:58;93794.50;;;15.70;49.72
8294;BME280;4185;41.506;24.938;2023-05-10T13:05:25;93789.38;;;15.61;49.95
8294;BME280;4185;41.506;24.938;2023-05-10T13:07:51;93777.63;;;15.66;50.62
8294;BME280;4185;41.506;24.938;2023-05-10T13:10:18;93783.19;;;15.55;50.95
8294;BME280;4185;41.506;24.938;2023-05-10T13:12:45;93777.28;;;15.45;51.59
8294;BME280;4185;41.506;24.938;2023-05-10T13:15:12;93774.97;;;15.20;52.03
8294;BME280;4185;41.506;24.938;2023-05-10T13:17:39;93789.88;;;15.19;51.89
8294;BME280;4185;41.506;24.938;2023-05-10T13:20:08;93781.22;;;15.15;52.02
8294;BME280;4185;41.506;24.938;2023-05-10T13:22:35;93789.97;;;15.08;51.80
8294;BME280;4185;41.506;24.938;2023-05-10T13:25:02;93785.13;;;14.90;51.38